CheckWX is a tool to help pilots better visualize weather data.  It is not intended as a substitute for an official pre-flight weather briefing.

02:34:12 UTC

KMKL TAF
Mc Kellar-Sipes Regional Airport
Jackson, Tennessee, USA
KMKL 060520Z 0606/0706 02004KT P6SM SCT250 TEMPO 0609/0612 5SM BR FM061300 VRB03KT P6SM SCT100 FM061800 21006KT P6SM SCT040 SCT100 FM070100 19003KT P6SM BKN100

Apr-6@
06:00 UTC

Apr-6 @ 06:00 UTC

Apr-6@
13:00 UTC

Apr-6 @ 13:00 UTC

TAF KMKL 060520Z 0606/0706 02004KT P6SM SCT250

Expired

Wind
  • 020° at 4 KTS
Cloud Levels
  • Scattered at 25,000' AGL

Apr-6@
09:00 UTC

Apr-6 @ 09:00 UTC

Apr-6@
12:00 UTC

Apr-6 @ 12:00 UTC

TEMPO 0609/0612 5SM BR

Expired

Conditions
Mist
Cloud Levels

Apr-6@
13:00 UTC

Apr-6 @ 13:00 UTC

Apr-6@
18:00 UTC

Apr-6 @ 18:00 UTC

FM061300 VRB03KT P6SM SCT100

Expired

Wind
  • Variable at 3 KTS
Cloud Levels
  • Scattered at 10,000' AGL

Apr-6@
18:00 UTC

Apr-6 @ 18:00 UTC

Apr-7@
01:00 UTC

Apr-7 @ 01:00 UTC

FM061800 21006KT P6SM SCT040 SCT100

Expired

Wind
  • 210° at 6 KTS
Cloud Levels
  • Scattered at 4,000' AGL
  • Scattered at 10,000' AGL

Apr-7@
01:00 UTC

Apr-7 @ 01:00 UTC

Apr-7@
06:00 UTC

Apr-7 @ 06:00 UTC

FM070100 19003KT P6SM BKN100

From

From Standard forecast or significant change

Wind
  • 190° at 3 KTS
Cloud Levels
  • Broken at 10,000' AGL